Flight Track Log - Related Links

Times and Time Zones

All times are in EDT time to prevent confusion due to time zone crossing. See the N201LH flight status page for this flight to view local times or setup timezone preferences in your user account.

Time Position Orientation Groundspeed Altitude Reporting Facility
EDT Latitude Longitude Course Direction KTS MPH feet Rate Location/Type
Thu 05:08:42 PM 39.8967 -84.2117 151° Southeast 65 75 1,300  Level Indianapolis Center
Thu 05:09:19 PM 39.8856 -84.2178 203° Southwest 72 83 1,800 804 Climbing Indianapolis Center
Thu 05:10:19 PM 39.8658 -84.2133 170° South 86 99 2,600 836 Climbing Indianapolis Center
Thu 05:11:21 PM 39.8406 -84.2069 169° South 89 102 3,500 768 Climbing Indianapolis Center
Thu 05:12:24 PM 39.8183 -84.1892 148° Southeast 94 108 4,200 720 Climbing Indianapolis Center
Thu 05:13:26 PM 39.7967 -84.1678 143° Southeast 96 110 5,000 677 Climbing Indianapolis Center
Thu 05:14:00 PM 39.6749 -84.0533 151° Southeast  Level Estimated
Thu 05:14:28 PM 39.7742 -84.1467 144° Southeast 96 110 5,600  Level Indianapolis Center
Thu 05:15:30 PM 39.7464 -84.1192 143° Southeast 99 114 6,500 774 Climbing Indianapolis Center
Thu 05:16:32 PM 39.7372 -84.0886 111° Southeast 105 121 7,200 677 Climbing Indianapolis Center
Thu 05:17:34 PM 39.7450 -84.0508 75° East 108 124 7,900 581 Climbing Indianapolis Center
Thu 05:18:36 PM 39.7328 -84.0256 122° Southeast 103 119 8,400 484 Climbing Indianapolis Center
Thu 05:19:38 PM 39.7081 -84.0106 155° Southeast 103 119 8,900 532 Climbing Indianapolis Center
Thu 05:20:40 PM 39.6789 -83.9922 154° Southeast 101 116 9,500 532 Climbing Indianapolis Center
Thu 05:21:42 PM 39.6547 -83.9750 151° Southeast 101 116 10,000 432 Climbing Indianapolis Center
Thu 05:22:45 PM 39.6303 -83.9581 152° Southeast 101 116 10,400 384 Climbing Indianapolis Center
Thu 05:23:47 PM 39.6056 -83.9408 152° Southeast 101 116 10,800 290 Climbing Indianapolis Center
Thu 05:24:49 PM 39.5800 -83.9233 152° Southeast 101 116 11,000 145 Climbing Indianapolis Center
Thu 05:25:51 PM 39.5492 -83.9000 150° Southeast 119 137 11,100 48 Climbing Indianapolis Center
Thu 05:26:53 PM 39.5069 -83.8711 152° Southeast 139 160 11,100  Level Indianapolis Center
Thu 05:27:55 PM 39.4697 -83.8450 152° Southeast 147 169 11,100 -48 Level Indianapolis Center
Thu 05:28:57 PM 39.4333 -83.8200 152° Southeast 147 169 11,000 -48 Descending Indianapolis Center
Thu 05:30:00 PM 39.3958 -83.7936 151° Southeast 148 170 11,000  Level Indianapolis Center
Thu 05:31:02 PM 39.3589 -83.7683 152° Southeast 149 171 11,000  Level Indianapolis Center
Thu 05:32:04 PM 39.3222 -83.7428 152° Southeast 149 171 11,000  Level Indianapolis Center
Thu 05:33:06 PM 39.2786 -83.7136 153° Southeast 149 171 11,000  Level Indianapolis Center
Thu 05:34:08 PM 39.2403 -83.6883 153° Southeast 150 173 11,000  Level Indianapolis Center
Thu 05:35:10 PM 39.2033 -83.6625 152° Southeast 150 173 11,000 -48 Level Indianapolis Center
Thu 05:36:12 PM 39.1675 -83.6367 151° Southeast 150 173 10,900 -48 Descending Indianapolis Center
Thu 05:37:14 PM 39.1317 -83.6131 153° Southeast 147 169 10,900 48 Level Indianapolis Center
Thu 05:38:16 PM 39.0881 -83.5842 153° Southeast 147 169 11,000 48 Climbing Indianapolis Center
Thu 05:39:19 PM 39.0511 -83.5589 152° Southeast 147 169 11,000  Level Indianapolis Center
Thu 05:40:21 PM 39.0147 -83.5328 151° Southeast 147 169 11,000 48 Level Indianapolis Center
Thu 05:41:23 PM 38.9783 -83.5072 151° Southeast 147 169 11,100 48 Climbing Indianapolis Center
Thu 05:42:25 PM 38.9406 -83.4825 153° Southeast 148 170 11,100 -48 Level Indianapolis Center
Thu 05:43:27 PM 38.9039 -83.4578 152° Southeast 149 171 11,000  Descending Indianapolis Center
Thu 05:44:29 PM 38.8594 -83.4286 153° Southeast 149 171 11,100 48 Climbing Indianapolis Center
Thu 05:45:31 PM 38.8219 -83.4014 151° Southeast 150 173 11,100 -290 Level Indianapolis Center
Thu 05:46:33 PM 38.7822 -83.3758 153° Southeast 156 180 10,500 -581 Descending Indianapolis Center
Thu 05:47:35 PM 38.7411 -83.3475 152° Southeast 164 189 9,900 -726 Descending Indianapolis Center
Thu 05:48:37 PM 38.7031 -83.3150 146° Southeast 163 188 9,000 -726 Descending Indianapolis Center
Thu 05:49:39 PM 38.6603 -83.2939 159° South 164 189 8,400 -576 Descending Indianapolis Center
Thu 05:50:42 PM 38.6186 -83.2661 152° Southeast 160 184 7,800 -528 Descending Indianapolis Center
Thu 05:51:44 PM 38.5767 -83.2336 149° Southeast 153 176 7,300 -290 Descending Indianapolis Center
Thu 05:52:46 PM 38.5369 -83.2111 156° South 153 176 7,200 -145 Descending Indianapolis Center
Thu 05:53:48 PM 38.4981 -83.1872 154° Southeast 154 177 7,000 -97 Descending Indianapolis Center
Thu 05:54:50 PM 38.4597 -83.1603 151° Southeast 154 177 7,000  Level Indianapolis Center
Thu 05:55:52 PM 38.4233 -83.1344 151° Southeast 153 176 7,000 48 Level Indianapolis Center
Thu 05:56:54 PM 38.3794 -83.1053 152° Southeast 153 176 7,100  Climbing Indianapolis Center
Thu 05:57:56 PM 38.3419 -83.0797 152° Southeast 153 176 7,000 -48 Descending Indianapolis Center
Thu 05:58:58 PM 38.3042 -83.0547 153° Southeast 153 176 7,000  Level Indianapolis Center
Thu 06:00:00 PM 38.2658 -83.0289 152° Southeast 153 176 7,000  Level Indianapolis Center
Thu 06:01:02 PM 38.2281 -83.0036 152° Southeast 153 176 7,000 -48 Level Indianapolis Center
Thu 06:02:05 PM 38.1914 -82.9786 152° Southeast 153 176 6,900  Descending Indianapolis Center
Thu 06:03:07 PM 38.1469 -82.9514 154° Southeast 152 175 7,000 -97 Climbing Indianapolis Center
Thu 06:04:09 PM 38.1081 -82.9256 152° Southeast 153 176 6,700 -290 Descending Indianapolis Center
Thu 06:05:11 PM 38.0681 -82.8986 152° Southeast 159 183 6,400 -242 Descending Indianapolis Center
Thu 06:06:13 PM 38.0283 -82.8717 152° Southeast 160 184 6,200 -145 Descending Indianapolis Center
Thu 06:07:15 PM 37.9883 -82.8453 153° Southeast 160 184 6,100 -242 Descending Indianapolis Center
Thu 06:08:17 PM 37.9422 -82.8153 153° Southeast 160 184 5,700 -435 Descending Indianapolis Center
Thu 06:09:19 PM 37.9008 -82.7875 152° Southeast 163 188 5,200 -484 Descending Indianapolis Center
Thu 06:10:21 PM 37.8606 -82.7617 153° Southeast 165 190 4,700 -288 Descending Indianapolis Center
Thu 06:11:24 PM 37.8219 -82.7358 152° Southeast 162 186 4,600 -48 Descending Indianapolis Center
Thu 06:12:26 PM 37.7861 -82.7128 153° Southeast 150 173 4,600 -97 Level Indianapolis Center
Thu 06:13:28 PM 37.7506 -82.6900 153° Southeast 146 168 4,400 -145 Descending Indianapolis Center
Thu 06:14:30 PM 37.7078 -82.6622 153° Southeast 146 168 4,300 -97 Descending Indianapolis Center
Thu 06:16:00 PM 37.6570 -82.6300 153° Southeast  Level FlightAware Approximate
Thu 06:23:00 PM 37.5618 -82.5664 142° Southeast  Level Estimated
Thu 06:24:00 PM 37.5618 -82.5664 132° Southeast  Level Estimated
Thu 06:25:00 PM 37.5618 -82.5664 142° Southeast  Level Estimated
Thu 06:26:00 PM 37.5618 -82.5664 132° Southeast  Level Estimated
Thu 06:27:00 PM 37.5618 -82.5664 142° Southeast  Level Estimated
Thu 06:28:00 PM 37.5618 -82.5664 132° Southeast  Level Estimated
Thu 06:29:00 PM 37.5618 -82.5664 142° Southeast  Level Estimated
Thu 06:30:00 PM 37.5618 -82.5664 132° Southeast  Level Estimated
Thu 06:31:00 PM 37.5618 -82.5664 142° Southeast  Level Estimated
Thu 06:32:00 PM 37.5618 -82.5664 132° Southeast  Level Estimated
Thu 06:33:00 PM 37.5618 -82.5664 142° Southeast  Level Estimated

Login

Don't have an account? Register now (free) for customized features, flight alerts, and more!